Time;durP1;ratioP1;P1;durP2;ratioP2;P2;SDS_P1;SDS_P2;PMS_P1;PMS_P2;Temp;Humidity;BMP_temperature;BMP_pressure;BME280_temperature;BME280_humidity;BME280_pressure;Samples;Min_cycle;Max_cycle;Signal;HPM_P1;HPM_P2
2022/09/15 00:01:36;;;;;;;3.78;3.38;;;;;;;22.68;61.20;100989.56;5070779;28;20024;-84
2022/09/15 00:04:02;;;;;;;4.30;3.55;;;;;;;22.90;61.39;101026.13;5062085;28;20112;-85
2022/09/15 00:06:28;;;;;;;;;;;;;;;22.95;61.27;101032.38;5070952;28;20122;-84
2022/09/15 00:08:53;;;;;;;4.22;3.38;;;;;;;22.90;61.47;101026.13;5066928;28;20398;-85
2022/09/15 00:11:21;;;;;;;;;;;;;;;22.91;61.32;101027.91;5073826;28;20149;-84
2022/09/15 00:13:48;;;;;;;5.55;3.88;;;;;;;22.92;61.27;101027.03;5087139;28;19912;-84
2022/09/15 00:16:15;;;;;;;4.55;3.22;;;;;;;22.44;61.29;100955.66;5048226;28;20063;-83
2022/09/15 00:18:41;;;;;;;3.97;3.38;;;;;;;22.89;61.36;101019.00;5092399;28;20043;-83
2022/09/15 00:21:10;;;;;;;3.85;3.42;;;;;;;22.88;61.38;101008.34;5074041;28;20028;-83
2022/09/15 00:23:36;;;;;;;3.65;3.33;;;;;;;22.88;61.40;100998.59;5076452;28;20024;-83
2022/09/15 00:26:06;;;;;;;5.22;3.63;;;;;;;22.50;61.30;100930.00;5091213;28;20024;-83
2022/09/15 00:28:31;;;;;;;3.58;3.28;;;;;;;22.69;61.33;100960.31;5092263;28;20036;-83
2022/09/15 00:30:57;;;;;;;3.67;3.20;;;;;;;22.78;61.26;100975.44;5062100;28;20445;-83
2022/09/15 00:33:22;;;;;;;;;;;;;;;22.91;61.26;100981.75;5093696;28;20036;-83
2022/09/15 00:35:50;;;;;;;4.13;3.72;;;;;;;22.92;61.23;100975.53;5091583;28;19912;-83
2022/09/15 00:38:16;;;;;;;4.32;3.53;;;;;;;22.69;61.21;100952.31;5059818;28;20397;-83
2022/09/15 00:40:42;;;;;;;;;;;;;;;22.92;61.03;100994.16;5078374;28;20032;-85
2022/09/15 00:43:09;;;;;;;4.03;3.43;;;;;;;22.85;61.16;100985.25;5075520;28;20307;-83
2022/09/15 00:45:35;;;;;;;3.75;3.33;;;;;;;22.86;61.28;100972.81;5096308;28;20067;-83
2022/09/15 00:48:01;;;;;;;3.78;3.38;;;;;;;22.76;61.18;100955.91;5114330;28;20153;-83
2022/09/15 00:50:27;;;;;;;3.92;3.50;;;;;;;22.50;61.21;100919.34;5095840;28;20058;-83
2022/09/15 00:52:54;;;;;;;;;;;;;;;22.89;61.02;100986.16;5096559;28;20477;-83
2022/09/15 00:55:27;;;;;;;3.25;2.97;;;;;;;22.85;61.20;100985.25;5079463;28;19918;-83
2022/09/15 00:58:00;;;;;;;3.85;3.45;;;;;;;22.87;61.14;100995.91;5107581;28;20620;-83
2022/09/15 01:00:26;;;;;;;3.83;3.40;;;;;;;22.81;61.10;100995.88;5090164;28;20024;-83
2022/09/15 01:02:53;;;;;;;4.57;3.50;;;;;;;22.81;61.01;101007.41;5091886;28;20114;-83
2022/09/15 01:05:21;;;;;;;3.90;3.50;;;;;;;22.84;61.02;101010.09;5098279;28;20164;-83
2022/09/15 01:07:52;;;;;;;4.68;3.83;;;;;;;22.85;61.10;101006.56;5098778;27;20043;-83
2022/09/15 01:10:24;;;;;;;3.80;3.35;;;;;;;22.79;61.07;100998.50;5095916;28;20361;-83
2022/09/15 01:12:52;;;;;;;4.40;3.88;;;;;;;22.55;61.05;100951.31;5064736;28;20028;-83
2022/09/15 01:15:18;;;;;;;4.15;3.53;;;;;;;22.67;61.08;100963.81;5094765;28;20056;-83
2022/09/15 01:18:05;;;;;;;3.50;3.20;;;;;;;22.83;60.92;100981.69;5079029;28;20028;-82
2022/09/15 01:20:49;;;;;;;;;;;;;;;22.86;60.80;100972.81;5094050;28;20547;-84
2022/09/15 01:23:57;;;;;;;3.83;3.50;;;;;;;22.84;60.77;100979.91;5097200;28;19972;-84
2022/09/15 01:26:55;;;;;;;3.85;3.47;;;;;;;22.66;60.87;100946.94;5100990;28;20055;-82
2022/09/15 01:29:46;;;;;;;4.40;3.80;;;;;;;22.71;60.91;100949.63;5112848;28;20063;-82
2022/09/15 01:35:21;;;;;;;3.55;3.25;;;;;;;22.77;60.87;100970.97;5098584;28;20084;-83
2022/09/15 01:37:56;;;;;;;4.10;3.70;;;;;;;22.66;60.78;100930.09;5089335;28;20481;-82
2022/09/15 01:40:23;;;;;;;4.05;3.22;;;;;;;22.79;60.75;100952.38;5102689;28;20054;-82
2022/09/15 01:42:50;;;;;;;3.63;3.33;;;;;;;22.74;60.89;100942.56;5095471;28;20476;-82
2022/09/15 01:45:21;;;;;;;4.28;3.88;;;;;;;22.80;60.66;100948.84;5104837;28;20070;-83
2022/09/15 01:47:47;;;;;;;3.88;3.58;;;;;;;22.75;60.93;100954.09;5092143;28;20031;-83
2022/09/15 01:50:17;;;;;;;4.18;3.75;;;;;;;22.71;60.87;100933.66;5083408;28;20031;-83
2022/09/15 01:52:47;;;;;;;4.13;3.58;;;;;;;22.80;60.59;100938.19;5112362;28;20058;-84
2022/09/15 01:55:21;;;;;;;3.95;3.33;;;;;;;22.75;60.60;100946.13;5086797;28;20066;-83
2022/09/15 01:57:47;;;;;;;3.92;3.53;;;;;;;22.77;60.51;100945.28;5089230;28;20024;-83
2022/09/15 02:00:13;;;;;;;;;;;;;;;22.79;60.50;100944.38;5113517;28;20046;-84
2022/09/15 02:02:45;;;;;;;4.32;3.88;;;;;;;22.64;60.45;100907.91;5109584;28;19912;-83
2022/09/15 02:05:40;;;;;;;3.78;3.47;;;;;;;22.75;60.65;100924.81;5091457;28;20022;-83
2022/09/15 02:08:24;;;;;;;5.00;3.67;;;;;;;22.63;60.64;100900.81;5094054;28;20039;-84
2022/09/15 02:11:14;;;;;;;3.75;3.42;;;;;;;22.76;60.62;100931.94;5094212;28;20127;-83
2022/09/15 02:14:10;;;;;;;4.03;3.63;;;;;;;22.78;60.40;100932.84;5112196;28;20102;-83
2022/09/15 02:16:38;;;;;;;3.65;3.35;;;;;;;22.70;60.33;100914.16;5100213;28;20118;-83
2022/09/15 02:19:21;;;;;;;5.20;3.70;;;;;;;22.73;60.47;100927.50;5099288;28;20018;-84
2022/09/15 02:21:56;;;;;;;4.85;3.70;;;;;;;22.73;60.64;100939.91;5088815;28;20028;-84
2022/09/15 02:24:43;;;;;;;4.90;3.97;;;;;;;22.73;60.62;100937.22;5082722;28;20504;-84
2022/09/15 02:27:12;;;;;;;4.45;3.78;;;;;;;22.74;60.25;100939.91;5080600;28;20528;-84
2022/09/15 02:29:38;;;;;;;3.97;3.60;;;;;;;22.68;60.31;100926.56;5093874;28;20028;-83
2022/09/15 02:32:05;;;;;;;;;;;;;;;22.73;60.53;100921.25;5094555;28;20024;-84
2022/09/15 02:34:35;;;;;;;4.28;3.85;;;;;;;22.41;60.50;100871.34;5093662;28;19911;-83
2022/09/15 02:37:03;;;;;;;3.58;3.28;;;;;;;22.67;60.30;100919.47;5079511;28;20044;-83
2022/09/15 02:39:33;;;;;;;5.45;3.95;;;;;;;22.68;60.49;100925.69;5087630;28;20024;-84
2022/09/15 02:42:01;;;;;;;4.35;3.92;;;;;;;22.67;60.58;100921.22;5087475;28;20027;-84
2022/09/15 02:44:29;;;;;;;4.00;3.60;;;;;;;22.71;60.45;100931.00;5092395;28;20047;-84
2022/09/15 02:46:59;;;;;;;4.43;3.83;;;;;;;22.65;60.55;100922.97;5093950;28;20032;-84
2022/09/15 02:49:24;;;;;;;4.38;3.55;;;;;;;22.60;60.38;100920.28;5074532;28;20032;-84
2022/09/15 02:51:50;;;;;;;5.30;4.05;;;;;;;22.56;60.53;100916.72;5098690;28;20032;-84
2022/09/15 02:54:16;;;;;;;4.20;3.80;;;;;;;22.59;60.33;100923.84;5106785;28;20042;-85
2022/09/15 02:56:42;;;;;;;;;;;;;;;22.68;60.43;100937.22;5112587;28;20546;-85
2022/09/15 02:59:08;;;;;;;4.30;3.90;;;;;;;22.54;60.42;100914.91;5117481;27;19911;-84
2022/09/15 03:01:33;;;;;;;4.53;4.03;;;;;;;22.32;60.19;100893.47;5079510;28;20485;-85
2022/09/15 03:04:00;;;;;;;;;;;;;;;22.65;60.41;100950.50;5086752;28;20127;-85
2022/09/15 03:06:27;;;;;;;4.25;3.83;;;;;;;;;;5068312;28;20392;-84
2022/09/15 03:09:00;;;;;;;4.00;3.45;;;;;;;22.55;60.52;100927.34;5101742;28;20028;-85
2022/09/15 03:11:26;;;;;;;4.00;3.60;;;;;;;22.47;60.06;100919.31;5089162;28;20035;-85
2022/09/15 03:13:57;;;;;;;4.57;3.90;;;;;;;22.47;60.43;100932.63;5088375;28;20027;-85
2022/09/15 03:16:24;;;;;;;4.03;3.70;;;;;;;22.52;60.33;100933.56;5081554;28;20050;-86
2022/09/15 03:18:50;;;;;;;4.28;3.88;;;;;;;22.65;60.20;100955.84;5102871;28;20067;-85
2022/09/15 03:21:17;;;;;;;4.00;3.70;;;;;;;22.51;60.44;100933.53;5078078;28;20031;-86
2022/09/15 03:23:44;;;;;;;4.03;3.63;;;;;;;22.36;60.22;100916.56;5076128;28;20436;-85
2022/09/15 03:26:10;;;;;;;4.28;3.88;;;;;;;22.63;60.35;100956.72;5081566;28;20032;-86
2022/09/15 03:28:37;;;;;;;3.78;3.47;;;;;;;22.33;60.29;100916.56;5093932;28;20556;-86
2022/09/15 03:31:03;;;;;;;3.88;3.58;;;;;;;22.54;60.48;100954.84;5102919;28;20072;-85
2022/09/15 03:33:29;;;;;;;4.45;3.85;;;;;;;22.43;60.42;100943.22;5118200;28;20062;-85
2022/09/15 03:35:54;;;;;;;4.20;3.80;;;;;;;22.54;60.42;100958.41;5099296;28;20093;-85
2022/09/15 03:38:20;;;;;;;5.03;3.67;;;;;;;22.53;60.27;100953.97;5086614;28;20051;-83
2022/09/15 03:41:03;;;;;;;4.20;3.80;;;;;;;22.61;60.30;100963.78;5100850;28;20416;-83
2022/09/15 03:43:30;;;;;;;4.40;3.95;;;;;;;22.63;60.27;100975.34;5072448;28;20031;-82
2022/09/15 03:45:56;;;;;;;4.30;3.90;;;;;;;22.39;60.18;100938.75;5100446;28;20059;-84
2022/09/15 03:48:23;;;;;;;4.53;4.07;;;;;;;22.51;60.22;100957.50;5105760;27;20465;-83
2022/09/15 03:50:49;;;;;;;5.20;3.90;;;;;;;22.48;60.20;100942.41;5093478;28;20032;-84
2022/09/15 03:53:15;;;;;;;4.40;4.00;;;;;;;22.33;60.32;100928.94;5101278;27;20031;-83
2022/09/15 03:55:40;;;;;;;;;;;;;;;22.61;60.15;100972.66;5094212;28;20039;-83
2022/09/15 03:58:06;;;;;;;4.45;4.05;;;;;;;22.58;60.36;100966.41;5102914;28;20357;-84
2022/09/15 04:00:32;;;;;;;;;;;;;;;22.59;60.50;100968.22;5096686;28;20027;-84
2022/09/15 04:02:58;;;;;;;4.80;4.30;;;;;;;22.52;60.27;100956.59;5115148;27;20411;-84
2022/09/15 04:05:24;;;;;;;;;;;;;;;22.61;60.40;100969.13;5093525;28;20027;-84
2022/09/15 04:07:49;;;;;;;4.93;4.20;;;;;;;22.34;60.37;100936.06;5089176;27;19909;-84
2022/09/15 04:10:15;;;;;;;4.40;4.00;;;;;;;22.22;60.30;100911.97;5089474;28;20548;-83
2022/09/15 04:12:41;;;;;;;4.25;3.80;;;;;;;22.58;60.56;100964.63;5088683;28;20027;-84
2022/09/15 04:15:06;;;;;;;;;;;;;;;22.58;60.27;100969.94;5111396;28;20031;-81
2022/09/15 04:17:32;;;;;;;4.55;4.15;;;;;;;22.48;60.38;100952.13;5096945;28;19918;-80
2022/09/15 04:19:58;;;;;;;;;;;;;;;22.58;60.45;100966.41;5100570;27;20020;-80
2022/09/15 04:22:23;;;;;;;4.30;3.80;;;;;;;22.55;60.41;100967.28;5095792;28;19916;-80
2022/09/15 04:24:49;;;;;;;4.43;3.80;;;;;;;22.56;60.41;100964.66;5100232;28;20481;-80
2022/09/15 04:27:15;;;;;;;4.55;4.15;;;;;;;22.54;60.73;100971.72;5102628;27;20035;-81
2022/09/15 04:29:41;;;;;;;4.78;4.35;;;;;;;;;;5119238;27;20539;-80
2022/09/15 04:32:07;;;;;;;4.70;4.30;;;;;;;22.55;60.26;100973.50;5097851;28;20108;-80
2022/09/15 04:34:33;;;;;;;6.57;4.78;;;;;;;22.55;60.40;100970.81;5101606;28;20033;-80
2022/09/15 04:36:59;;;;;;;6.38;5.57;;;;;;;22.56;60.07;100966.38;5112011;28;20106;-81
2022/09/15 04:39:24;;;;;;;7.82;5.75;;;;;;;22.47;60.17;100953.91;5088882;28;20040;-81
2022/09/15 04:41:50;;;;;;;5.57;4.97;;;;;;;22.50;60.65;100961.00;5108777;28;20027;-80
2022/09/15 04:44:15;;;;;;;;;;;;;;;22.58;60.36;100961.09;5098784;27;20039;-80
2022/09/15 04:46:41;;;;;;;6.18;5.50;;;;;;;22.53;60.38;100964.59;5078215;28;20003;-80
2022/09/15 04:49:06;;;;;;;5.75;5.15;;;;;;;22.39;60.62;100938.75;5100894;27;20043;-81
2022/09/15 04:51:32;;;;;;;5.47;4.93;;;;;;;22.53;60.54;100951.28;5122524;27;20041;-81
2022/09/15 04:53:58;;;;;;;4.85;4.40;;;;;;;22.46;60.61;100941.50;5112944;27;20466;-81
2022/09/15 04:56:24;;;;;;;6.15;5.05;;;;;;;22.54;60.45;100962.81;5112102;27;20031;-80
2022/09/15 04:58:55;;;;;;;5.63;4.90;;;;;;;22.50;60.48;100964.59;5088402;28;20032;-81
2022/09/15 05:01:23;;;;;;;5.30;4.80;;;;;;;22.53;60.40;100966.38;5100426;28;20070;-80
2022/09/15 05:03:49;;;;;;;4.82;4.35;;;;;;;22.49;60.56;100968.13;5075869;28;20493;-80
2022/09/15 05:06:17;;;;;;;4.90;4.47;;;;;;;22.51;60.33;100969.00;5095138;27;20510;-81
2022/09/15 05:08:46;;;;;;;5.45;4.95;;;;;;;22.41;60.24;100959.16;5106522;28;20024;-81
2022/09/15 05:11:12;;;;;;;5.68;4.95;;;;;;;22.47;60.25;100961.88;5105244;28;20077;-80
2022/09/15 05:13:39;;;;;;;5.80;5.05;;;;;;;22.39;60.35;100941.41;5095047;28;20032;-80
2022/09/15 05:16:10;;;;;;;5.47;4.93;;;;;;;22.47;60.42;100967.22;5111316;28;20027;-78
2022/09/15 05:18:37;;;;;;;5.28;4.78;;;;;;;22.49;60.52;100973.44;5107291;28;20027;-79
2022/09/15 05:21:04;;;;;;;5.13;4.60;;;;;;;22.45;60.61;100968.09;5106478;28;20409;-80
2022/09/15 05:23:30;;;;;;;6.68;4.80;;;;;;;22.49;60.56;100967.22;5111339;27;20042;-80
2022/09/15 05:26:01;;;;;;;6.75;4.80;;;;;;;22.47;60.80;100968.97;5096027;28;20032;-80
2022/09/15 05:28:27;;;;;;;5.88;5.15;;;;;;;22.46;60.69;100965.44;5112909;28;20038;-80
2022/09/15 05:30:54;;;;;;;5.40;4.90;;;;;;;22.45;60.91;100966.31;5097596;28;20416;-80
2022/09/15 05:33:20;;;;;;;9.95;7.63;;;;;;;22.41;60.84;100964.50;5099592;27;20036;-81
2022/09/15 05:35:56;;;;;;;8.38;6.22;;;;;;;22.36;60.91;100964.47;5098971;28;20039;-80
2022/09/15 05:38:23;;;;;;;6.00;5.50;;;;;;;22.45;60.91;100976.06;5099769;28;20052;-80
2022/09/15 05:40:49;;;;;;;6.85;5.13;;;;;;;22.43;61.01;100968.06;5094165;27;20023;-79
2022/09/15 05:43:15;;;;;;;;;;;;;;;22.44;60.91;100969.84;5072187;28;20035;-79
2022/09/15 05:45:43;;;;;;;6.05;5.45;;;;;;;22.37;60.76;100954.69;5100907;28;20002;-80
2022/09/15 05:48:12;;;;;;;5.80;5.30;;;;;;;22.25;60.91;100939.53;5109755;27;20053;-81
2022/09/15 05:50:38;;;;;;;6.20;5.60;;;;;;;22.33;60.79;100947.56;5092919;28;20453;-83
2022/09/15 05:53:05;;;;;;;6.90;5.40;;;;;;;22.42;60.80;100974.28;5092750;28;20060;-83
2022/09/15 05:55:30;;;;;;;6.25;5.65;;;;;;;22.44;60.97;100972.53;5077479;28;20039;-83
2022/09/15 05:57:56;;;;;;;5.90;5.10;;;;;;;22.33;60.97;100956.47;5081902;28;20040;-84
2022/09/15 06:00:23;;;;;;;8.18;5.47;;;;;;;22.48;60.96;100973.41;5083428;28;20035;-83
2022/09/15 06:02:50;;;;;;;5.95;5.13;;;;;;;22.26;60.99;100940.41;5095979;28;20019;-83
2022/09/15 06:05:30;;;;;;;6.70;5.40;;;;;;;22.44;61.04;100967.19;5088066;28;20475;-84
2022/09/15 06:07:56;;;;;;;6.03;5.43;;;;;;;22.45;60.97;100968.09;5087291;28;20035;-84
2022/09/15 06:10:23;;;;;;;5.72;5.10;;;;;;;22.45;61.15;100978.72;5094218;28;20027;-82
2022/09/15 06:12:52;;;;;;;6.60;5.50;;;;;;;22.42;61.15;100963.63;5102436;28;20023;-82
2022/09/15 06:15:21;;;;;;;5.82;5.20;;;;;;;22.46;61.07;100969.88;5107218;27;20449;-83
2022/09/15 06:17:56;;;;;;;5.95;5.35;;;;;;;22.39;61.09;100952.06;5090744;28;20102;-83
2022/09/15 06:20:22;;;;;;;5.70;5.20;;;;;;;22.38;61.11;100952.97;5076438;27;20060;-83
2022/09/15 06:22:47;;;;;;;;;;;;;;;22.48;60.96;100969.00;5089203;28;20477;-82
2022/09/15 06:25:13;;;;;;;6.10;5.50;;;;;;;22.45;61.18;100965.41;5095228;28;19919;-83
2022/09/15 06:27:40;;;;;;;6.85;5.63;;;;;;;22.33;61.12;100947.56;5098976;28;20559;-83
2022/09/15 06:30:07;;;;;;;6.72;5.43;;;;;;;22.45;61.16;100971.63;5100516;27;20036;-85
2022/09/15 06:32:32;;;;;;;6.30;5.70;;;;;;;22.34;61.10;100954.69;5108433;27;20023;-85
2022/09/15 06:34:58;;;;;;;6.35;5.72;;;;;;;22.45;61.12;100973.41;5100559;27;20072;-84
2022/09/15 06:37:24;;;;;;;;;;;;;;;22.47;61.14;100969.88;5082475;28;20040;-83
2022/09/15 06:39:49;;;;;;;6.20;5.50;;;;;;;22.46;61.18;100975.22;5120399;27;19915;-83
2022/09/15 06:42:15;;;;;;;6.03;5.43;;;;;;;22.45;61.39;100973.41;5102824;28;20028;-84
2022/09/15 06:44:41;;;;;;;5.32;4.82;;;;;;;22.44;61.31;100961.88;5093176;28;20031;-84
2022/09/15 06:47:06;;;;;;;;;;;;;;;22.46;61.23;100962.78;5093543;28;20031;-81
2022/09/15 06:49:32;;;;;;;6.00;5.40;;;;;;;22.44;61.28;100956.56;5085982;27;20361;-82
2022/09/15 06:51:57;;;;;;;;;;;;;;;22.48;61.17;100958.38;5103078;28;20035;-81
2022/09/15 06:54:23;;;;;;;6.82;5.20;;;;;;;22.44;61.33;100953.88;5085166;28;19966;-83
2022/09/15 06:56:49;;;;;;;5.65;5.15;;;;;;;22.40;61.43;100943.22;5091342;28;20485;-82
2022/09/15 06:59:15;;;;;;;;;;;;;;;22.47;61.40;100950.34;5096755;28;20036;-84
2022/09/15 07:01:41;;;;;;;6.03;5.43;;;;;;;22.45;61.36;100945.00;5100444;27;19912;-83
2022/09/15 07:04:09;;;;;;;;;;;;;;;22.49;61.36;100949.47;5107544;28;20031;-82
2022/09/15 07:06:37;;;;;;;5.30;4.90;;;;;;;22.47;61.40;100937.06;5118492;27;19912;-82
2022/09/15 07:09:03;;;;;;;7.22;5.63;;;;;;;22.48;61.30;100942.41;5108541;27;20020;-83
2022/09/15 07:11:30;;;;;;;6.55;5.90;;;;;;;22.48;61.31;100944.13;5107418;27;20469;-82
2022/09/15 07:13:55;;;;;;;5.80;5.30;;;;;;;;;;5103733;27;20041;-83
2022/09/15 07:16:21;;;;;;;6.35;5.70;;;;;;;22.42;61.45;100928.16;5078878;28;20118;-84
2022/09/15 07:18:47;;;;;;;6.32;5.70;;;;;;;22.43;61.12;100925.47;5102182;28;20032;-83
2022/09/15 07:21:18;;;;;;;6.35;5.75;;;;;;;22.35;61.58;100933.44;5116736;27;20054;-84
2022/09/15 07:23:44;;;;;;;6.68;5.97;;;;;;;22.40;61.61;100932.56;5105607;27;20499;-84
2022/09/15 07:26:16;;;;;;;6.25;5.50;;;;;;;22.36;61.81;100928.97;5090522;28;20107;-84
2022/09/15 07:28:45;;;;;;;6.28;5.68;;;;;;;22.26;61.65;100916.47;5092294;28;20021;-84
2022/09/15 07:31:14;;;;;;;6.65;6.05;;;;;;;22.33;61.60;100926.28;5092815;28;20056;-84
2022/09/15 07:33:39;;;;;;;6.07;5.47;;;;;;;22.31;61.52;100915.66;5101714;28;20408;-83
2022/09/15 07:36:07;;;;;;;6.10;5.50;;;;;;;22.35;61.69;100929.84;5107608;28;20396;-84
2022/09/15 07:38:33;;;;;;;5.88;5.32;;;;;;;22.29;61.47;100914.75;5096691;28;20518;-83
2022/09/15 07:41:07;;;;;;;6.47;5.40;;;;;;;22.18;61.56;100900.41;5102453;28;20036;-82
2022/09/15 07:43:32;;;;;;;7.70;5.88;;;;;;;22.21;61.38;100900.44;5075507;28;20085;-83
2022/09/15 07:45:59;;;;;;;6.45;5.85;;;;;;;22.27;61.13;100899.66;5113237;28;20030;-82
2022/09/15 07:48:24;;;;;;;6.85;5.80;;;;;;;22.28;61.34;100907.63;5107785;28;20028;-83
2022/09/15 07:50:50;;;;;;;7.03;6.25;;;;;;;22.30;61.18;100900.53;5103710;28;20042;-81
2022/09/15 07:53:16;;;;;;;;;;;;;;;22.34;61.39;100906.78;5101797;28;20039;-82
2022/09/15 07:55:42;;;;;;;5.82;5.32;;;;;;;22.37;61.39;100901.47;5102261;28;20369;-81
2022/09/15 07:58:07;;;;;;;7.22;6.05;;;;;;;22.25;60.89;100877.47;5120981;28;20499;-83
2022/09/15 08:00:33;;;;;;;9.10;6.28;;;;;;;22.26;60.83;100879.22;5121595;28;20042;-83
2022/09/15 08:02:59;;;;;;;13.15;6.47;;;;;;;22.30;61.27;100900.53;5108136;28;20031;-84
2022/09/15 08:05:27;;;;;;;7.53;5.93;;;;;;;22.31;61.26;100902.34;5091382;28;20067;-83
2022/09/15 08:07:54;;;;;;;6.78;6.07;;;;;;;22.29;61.34;100889.91;5122286;28;20024;-84
2022/09/15 08:10:21;;;;;;;7.40;5.60;;;;;;;22.32;61.22;100887.28;5108167;28;20488;-83
2022/09/15 08:12:47;;;;;;;6.80;5.90;;;;;;;22.38;61.00;100879.34;5099760;28;20536;-83
2022/09/15 08:15:13;;;;;;;;;;;;;;;22.36;61.05;100886.41;5097501;28;20084;-83
2022/09/15 08:17:39;;;;;;;6.55;5.95;;;;;;;22.30;61.16;100881.94;5074127;28;19908;-84
2022/09/15 08:20:05;;;;;;;6.97;6.10;;;;;;;22.39;60.99;100889.09;5116278;28;20058;-84
2022/09/15 08:22:30;;;;;;;;;;;;;;;22.43;61.02;100900.66;5094584;28;20036;-84
2022/09/15 08:24:56;;;;;;;6.50;5.90;;;;;;;22.52;61.06;100896.28;5103382;28;19918;-84
2022/09/15 08:27:21;;;;;;;7.05;6.35;;;;;;;22.45;61.17;100894.44;5110760;28;20024;-84
2022/09/15 08:29:48;;;;;;;6.55;5.95;;;;;;;22.48;60.77;100881.19;5111313;28;20042;-83
2022/09/15 08:32:13;;;;;;;;;;;;;;;22.54;60.99;100885.63;5113564;28;20019;-85
2022/09/15 08:34:39;;;;;;;7.45;6.40;;;;;;;22.48;61.04;100889.16;5112154;28;20289;-84
2022/09/15 08:37:04;;;;;;;;;;;;;;;22.49;61.17;100896.25;5114825;28;20071;-85
2022/09/15 08:39:30;;;;;;;6.35;5.75;;;;;;;22.58;60.65;100895.44;5114144;28;20399;-85
2022/09/15 08:41:55;;;;;;;;;;;;;;;22.51;60.87;100886.50;5109809;28;20032;-84
2022/09/15 08:44:48;;;;;;;8.05;6.30;;;;;;;22.55;61.05;100887.44;5072142;28;19908;-84
2022/09/15 08:47:23;;;;;;;9.35;6.55;;;;;;;22.49;61.27;100879.41;5094606;28;20546;-84
2022/09/15 08:49:51;;;;;;;7.55;6.63;;;;;;;22.51;61.34;100886.50;5079965;28;20161;-84
2022/09/15 08:52:34;;;;;;;6.88;6.18;;;;;;;22.49;61.28;100890.06;5114198;28;20023;-83
2022/09/15 08:55:22;;;;;;;6.47;5.78;;;;;;;22.54;61.01;100882.97;5093822;28;20019;-84
2022/09/15 08:57:51;;;;;;;7.35;6.40;;;;;;;22.50;60.85;100873.19;5097533;28;20072;-84
2022/09/15 09:00:17;;;;;;;6.78;6.10;;;;;;;22.54;61.04;100872.34;5092762;28;20039;-84
2022/09/15 09:03:08;;;;;;;7.18;6.10;;;;;;;22.43;60.98;100853.63;5095890;28;20036;-84
2022/09/15 09:05:43;;;;;;;7.20;6.07;;;;;;;22.48;60.87;100861.63;5104265;28;20024;-84
2022/09/15 09:08:25;;;;;;;6.80;6.10;;;;;;;22.24;61.14;100825.13;5094339;28;20023;-84
2022/09/15 09:10:55;;;;;;;7.80;6.13;;;;;;;22.37;60.84;100826.97;5092745;28;20103;-83
2022/09/15 09:13:37;;;;;;;6.45;5.72;;;;;;;22.51;60.78;100857.25;5093183;28;20020;-83
2022/09/15 09:16:20;;;;;;;7.30;6.60;;;;;;;22.32;61.02;100823.41;5109462;28;20488;-83
2022/09/15 09:19:04;;;;;;;6.93;6.20;;;;;;;22.61;60.91;100868.84;5084074;28;20057;-84
2022/09/15 09:21:37;;;;;;;7.57;5.93;;;;;;;22.38;60.86;100822.56;5092098;28;20028;-84
2022/09/15 09:24:16;;;;;;;7.20;6.50;;;;;;;22.65;61.02;100861.75;5081159;28;20018;-83
2022/09/15 09:26:43;;;;;;;8.15;6.28;;;;;;;22.26;61.12;100805.63;5092055;28;20047;-83
2022/09/15 09:29:15;;;;;;;7.28;6.28;;;;;;;22.59;61.02;100849.31;5078273;28;20042;-84
2022/09/15 09:31:42;;;;;;;9.07;6.50;;;;;;;22.59;60.82;100849.31;5092167;28;20020;-84
2022/09/15 09:34:34;;;;;;;6.90;6.20;;;;;;;22.66;60.65;100858.22;5112265;28;20016;-84
2022/09/15 09:37:08;;;;;;;8.27;6.40;;;;;;;22.63;61.17;100852.91;5083145;28;20052;-83
2022/09/15 09:39:34;;;;;;;7.13;6.38;;;;;;;22.55;60.94;100826.22;5069024;28;20433;-84
2022/09/15 09:42:01;;;;;;;7.68;6.47;;;;;;;22.66;60.81;100827.16;5075344;28;20059;-84
2022/09/15 09:44:30;;;;;;;7.07;6.20;;;;;;;22.73;60.53;100836.97;5074926;28;20032;-84
2022/09/15 09:47:00;;;;;;;8.45;6.95;;;;;;;22.74;60.84;100844.06;5093121;28;20489;-84
2022/09/15 09:49:37;;;;;;;8.38;6.28;;;;;;;22.76;60.65;100842.31;5092589;28;20103;-84
2022/09/15 09:52:03;;;;;;;7.13;6.47;;;;;;;22.74;60.07;100829.88;5075119;28;20478;-83
2022/09/15 09:54:31;;;;;;;8.05;6.80;;;;;;;22.72;60.06;100832.53;5074306;28;20046;-84
2022/09/15 09:57:21;;;;;;;8.52;6.88;;;;;;;22.80;60.52;100845.00;5092979;28;20038;-84
2022/09/15 09:59:48;;;;;;;7.60;6.43;;;;;;;22.90;60.15;100846.78;5078190;28;20046;-85
2022/09/15 10:02:20;;;;;;;7.43;6.72;;;;;;;22.65;60.25;100812.09;5074855;28;20055;-84
2022/09/15 10:04:48;;;;;;;7.30;6.60;;;;;;;22.51;60.61;100797.81;5057506;28;20031;-85
2022/09/15 10:07:17;;;;;;;6.88;6.20;;;;;;;22.70;60.74;100831.63;5074595;28;20062;-85
2022/09/15 10:09:54;;;;;;;7.90;6.15;;;;;;;22.48;60.55;100792.44;5074262;28;20016;-82
2022/09/15 10:12:29;;;;;;;7.38;6.63;;;;;;;22.47;60.68;100780.91;5064637;28;20436;-84
2022/09/15 10:14:57;;;;;;;7.60;6.85;;;;;;;22.85;60.69;100836.13;5071999;28;20020;-84
2022/09/15 10:17:43;;;;;;;7.97;6.53;;;;;;;22.70;59.38;100796.13;5057323;28;20096;-88
2022/09/15 10:20:31;;;;;;;10.20;6.88;;;;;;;23.11;58.84;100814.06;5071934;28;20040;-82
2022/09/15 10:23:20;;;;;;;8.20;6.97;;;;;;;23.01;58.89;100813.16;5068768;28;20489;-84
2022/09/15 10:25:46;;;;;;;8.43;7.13;;;;;;;22.89;59.34;100805.09;5067695;28;20093;-85
2022/09/15 10:28:17;;;;;;;9.80;7.30;;;;;;;22.77;59.56;100785.53;5066024;28;20545;-84
2022/09/15 10:31:05;;;;;;;10.20;6.47;;;;;;;22.92;59.76;100811.31;5091816;28;20016;-84
2022/09/15 10:33:33;;;;;;;7.57;6.72;;;;;;;22.86;59.56;100799.72;5074271;28;20459;-84
2022/09/15 10:36:05;;;;;;;9.77;7.53;;;;;;;22.95;59.36;100818.44;5078085;28;20409;-84
2022/09/15 10:38:41;;;;;;;8.07;7.00;;;;;;;22.97;59.66;100800.69;5086198;28;20490;-83
2022/09/15 10:41:29;;;;;;;8.95;7.15;;;;;;;22.94;59.55;100804.25;5072051;28;20115;-84
2022/09/15 10:44:17;;;;;;;11.15;6.75;;;;;;;23.01;59.47;100805.19;5066704;28;20038;-83
2022/09/15 10:46:52;;;;;;;10.52;6.97;;;;;;;22.95;59.33;100782.03;5077606;28;20083;-84
2022/09/15 10:50:06;;;;;;;9.73;6.82;;;;;;;22.84;59.87;100777.53;5088718;28;20462;-84
2022/09/15 10:52:34;;;;;;;7.65;6.50;;;;;;;23.00;60.00;100797.13;5009339;28;20040;-84
2022/09/15 10:55:09;;;;;;;7.72;6.60;;;;;;;23.00;60.15;100791.81;5073560;28;20094;-83
2022/09/15 10:57:37;;;;;;;8.48;7.13;;;;;;;22.96;59.94;100781.16;5052433;28;20035;-83
2022/09/15 11:00:07;;;;;;;10.00;6.57;;;;;;;22.74;60.10;100747.34;5091784;28;20157;-84
2022/09/15 11:03:03;;;;;;;7.65;6.82;;;;;;;23.02;60.08;100785.63;5056995;28;20177;-84
2022/09/15 11:05:51;;;;;;;8.75;7.15;;;;;;;23.03;60.07;100782.09;5091742;28;20039;-84
2022/09/15 11:08:37;;;;;;;8.40;6.63;;;;;;;23.07;59.49;100774.97;5091110;28;20016;-83
2022/09/15 11:11:12;;;;;;;7.15;6.15;;;;;;;22.77;59.29;100716.31;5065139;28;20028;-84
2022/09/15 11:13:38;;;;;;;9.00;6.20;;;;;;;22.91;59.51;100726.09;5067389;28;20512;-83
2022/09/15 11:16:42;;;;;;;7.60;6.40;;;;;;;23.13;59.49;100749.25;5087019;28;20055;-84
2022/09/15 11:19:14;;;;;;;8.25;6.35;;;;;;;23.20;59.34;100750.19;5084248;28;20028;-83
2022/09/15 11:21:46;;;;;;;6.85;6.10;;;;;;;23.19;59.36;100747.50;5091197;28;20481;-83
2022/09/15 11:24:19;;;;;;;10.70;6.85;;;;;;;23.19;59.58;100748.38;5078156;28;20024;-83
2022/09/15 11:26:55;;;;;;;6.40;5.80;;;;;;;23.21;59.40;100745.72;5091376;28;20028;-83
2022/09/15 11:29:29;;;;;;;7.35;5.95;;;;;;;23.28;59.32;100739.50;5082692;28;20390;-83
2022/09/15 11:32:02;;;;;;;8.85;6.22;;;;;;;23.39;58.89;100748.44;5091192;28;20050;-84
2022/09/15 11:34:32;;;;;;;10.10;6.53;;;;;;;23.45;58.79;100731.53;5066988;28;20032;-84
2022/09/15 11:37:06;;;;;;;7.57;6.45;;;;;;;23.42;58.87;100735.09;5067402;28;20075;-82
2022/09/15 11:39:50;;;;;;;7.00;5.75;;;;;;;23.46;58.60;100714.66;5072968;28;20039;-85
2022/09/15 11:42:24;;;;;;;7.35;5.95;;;;;;;23.54;58.69;100731.56;5066784;28;20031;-83
2022/09/15 11:44:53;;;;;;;7.72;6.25;;;;;;;23.37;58.97;100711.09;5098591;28;20587;-84
2022/09/15 11:47:46;;;;;;;9.70;6.75;;;;;;;23.53;58.69;100727.97;5059377;28;20607;-84
2022/09/15 11:50:32;;;;;;;9.98;6.60;;;;;;;22.87;58.92;100624.00;5073444;28;20489;-84
2022/09/15 11:53:22;;;;;;;9.05;6.32;;;;;;;23.50;58.84;100729.78;5056203;28;20553;-83